Time;durP1;ratioP1;P1;durP2;ratioP2;P2;SDS_P1;SDS_P2;PMS_P1;PMS_P2;Temp;Humidity;BMP_temperature;BMP_pressure;BME280_temperature;BME280_humidity;BME280_pressure;Samples;Min_cycle;Max_cycle;Signal;HPM_P1;HPM_P2
2021/03/02 00:00:33;;;;;;;12.00;9.15;;;;;;;1.50;85.06;101109.73;1689194;83;21648;-66
2021/03/02 00:03:04;;;;;;;8.95;7.50;;;;;;;1.49;85.05;101116.16;1689508;83;21072;-66
2021/03/02 00:05:31;;;;;;;11.65;9.05;;;;;;;1.46;85.02;101107.98;1669315;83;21154;-66
2021/03/02 00:08:01;;;;;;;11.68;8.58;;;;;;;1.44;85.03;101109.66;1690069;83;21235;-66
2021/03/02 00:10:29;;;;;;;10.05;8.80;;;;;;;1.44;85.10;101100.66;1689276;83;21923;-66
2021/03/02 00:12:57;;;;;;;13.65;9.15;;;;;;;1.47;85.12;101097.26;1689067;83;21252;-66
2021/03/02 00:15:25;;;;;;;10.53;8.88;;;;;;;1.47;85.08;101092.97;1689475;83;21805;-66
2021/03/02 00:17:54;;;;;;;11.90;9.53;;;;;;;1.47;85.10;101092.97;1689734;83;21066;-66
2021/03/02 00:20:24;;;;;;;10.78;8.68;;;;;;;1.46;85.07;101111.84;1689260;83;21215;-66
2021/03/02 00:22:58;;;;;;;9.60;7.70;;;;;;;1.43;85.07;101106.66;1690317;83;21083;-66
2021/03/02 00:25:44;;;;;;;12.05;8.90;;;;;;;1.40;85.08;101104.05;1688102;83;22818;-65
2021/03/02 00:28:11;;;;;;;12.40;9.18;;;;;;;1.38;85.16;101102.30;1666326;84;21986;-65
2021/03/02 00:30:39;;;;;;;11.15;8.35;;;;;;;1.37;85.09;101091.12;1690096;83;21146;-66
2021/03/02 00:33:07;;;;;;;10.10;8.20;;;;;;;1.36;85.09;101089.41;1688117;83;22162;-66
2021/03/02 00:35:35;;;;;;;11.00;7.90;;;;;;;1.31;85.07;101088.47;1686589;83;21096;-66
2021/03/02 00:38:02;;;;;;;;;;;;;;;1.26;85.14;101096.16;1690830;83;21192;-65
2021/03/02 00:40:29;;;;;;;14.13;8.35;;;;;;;1.22;85.18;101092.23;1688298;83;20265;-65
2021/03/02 00:42:57;;;;;;;9.30;7.28;;;;;;;1.21;85.28;101084.08;1650776;84;21141;-65
2021/03/02 00:45:24;;;;;;;9.40;8.43;;;;;;;1.20;85.31;101090.05;1655154;84;21601;-65
2021/03/02 00:47:54;;;;;;;11.40;8.10;;;;;;;1.20;85.26;101091.34;1655402;84;21100;-65
2021/03/02 00:52:54;;;;;;;11.70;9.78;;;;;;;1.29;85.42;101092.77;1804676;77;22098;-66
2021/03/02 00:55:21;;;;;;;13.98;10.43;;;;;;;1.30;85.41;101084.19;1776199;78;21062;-65
2021/03/02 00:57:48;;;;;;;;;;;;;;;1.32;85.41;101094.09;1783191;78;21203;-65
2021/03/02 01:00:16;;;;;;;13.05;10.23;;;;;;;1.34;85.42;101091.08;1772281;78;20291;-65
2021/03/02 01:02:44;;;;;;;11.78;9.28;;;;;;;1.33;85.35;101084.22;1774561;78;21182;-65
2021/03/02 01:05:12;;;;;;;11.85;8.40;;;;;;;1.30;85.28;101079.04;1773048;78;21009;-65
2021/03/02 01:07:39;;;;;;;8.60;7.08;;;;;;;1.27;85.36;101076.43;1683176;81;21131;-66
2021/03/02 01:10:08;;;;;;;10.40;8.03;;;;;;;1.26;85.32;101069.54;1734081;81;21291;-65
2021/03/02 01:12:36;;;;;;;8.80;7.05;;;;;;;1.28;85.34;101063.99;1734778;81;21273;-65
2021/03/02 01:15:06;;;;;;;9.65;8.35;;;;;;;1.26;85.33;101059.25;1714463;81;21138;-65
2021/03/02 01:17:34;;;;;;;11.55;8.60;;;;;;;1.24;85.38;101051.52;1739363;80;21139;-65
2021/03/02 01:20:01;;;;;;;10.13;9.03;;;;;;;1.26;85.39;101061.81;1737218;80;21112;-65
2021/03/02 01:22:28;;;;;;;12.18;9.90;;;;;;;1.26;85.44;101064.39;1741924;80;22641;-65
2021/03/02 01:24:55;;;;;;;11.08;9.33;;;;;;;1.28;85.46;101049.84;1744151;80;21645;-65
2021/03/02 01:27:22;;;;;;;11.50;9.03;;;;;;;1.28;85.36;101052.41;1743472;80;21567;-65
2021/03/02 01:29:49;;;;;;;12.47;9.90;;;;;;;1.27;85.44;101057.13;1743401;80;21136;-65
2021/03/02 01:32:16;;;;;;;12.13;9.55;;;;;;;1.27;85.45;101055.84;1743605;80;21131;-65
2021/03/02 01:34:43;;;;;;;12.95;9.73;;;;;;;1.27;85.50;101053.27;1735655;81;21115;-65
2021/03/02 01:37:10;;;;;;;13.00;9.33;;;;;;;1.27;85.51;101053.27;1730037;81;21080;-66
2021/03/02 01:39:37;;;;;;;11.70;9.35;;;;;;;1.23;85.43;101046.34;1729236;81;21183;-65
2021/03/02 01:42:04;;;;;;;10.55;9.45;;;;;;;1.22;85.48;101057.50;1729173;81;21127;-65
2021/03/02 01:44:31;;;;;;;12.28;9.55;;;;;;;1.22;85.48;101047.20;1726618;81;21090;-65
2021/03/02 01:46:59;;;;;;;10.63;7.37;;;;;;;1.20;85.51;101051.45;1728912;81;21711;-65
2021/03/02 01:49:26;;;;;;;12.00;9.30;;;;;;;1.22;85.65;101057.50;1711611;81;21744;-65
2021/03/02 01:51:53;;;;;;;10.40;8.80;;;;;;;1.17;85.49;101051.42;1735440;81;21535;-65
2021/03/02 01:54:20;;;;;;;11.83;9.60;;;;;;;1.16;85.59;101049.70;1711624;81;21747;-65
2021/03/02 01:56:47;;;;;;;10.43;9.20;;;;;;;1.13;85.56;101047.09;1735816;81;21181;-65
2021/03/02 01:59:14;;;;;;;9.33;8.20;;;;;;;1.12;85.59;101053.92;1712497;82;22166;-65
2021/03/02 02:01:41;;;;;;;10.58;9.10;;;;;;;1.10;85.70;101048.78;1729173;81;22595;-65
2021/03/02 02:04:21;;;;;;;12.50;9.30;;;;;;;1.08;85.70;101047.89;1726740;81;21674;-65
2021/03/02 02:07:06;;;;;;;10.85;9.45;;;;;;;1.08;85.67;101049.60;1724222;81;21104;-66
2021/03/02 02:10:10;;;;;;;9.68;8.03;;;;;;;1.09;85.70;101044.49;1723614;81;22418;-66
2021/03/02 02:12:50;;;;;;;11.08;9.48;;;;;;;1.13;85.73;101045.38;1722664;81;21224;-66
2021/03/02 02:15:27;;;;;;;9.20;8.15;;;;;;;1.13;85.70;101049.24;1729517;81;21172;-66
2021/03/02 02:18:06;;;;;;;10.48;8.38;;;;;;;1.15;85.83;101046.67;1725311;81;21033;-66
2021/03/02 02:20:59;;;;;;;11.57;8.63;;;;;;;1.15;85.77;101045.38;1724430;81;21194;-66
2021/03/02 02:23:46;;;;;;;11.03;8.48;;;;;;;1.13;85.69;101045.81;1725647;81;21122;-65
2021/03/02 02:26:57;;;;;;;12.40;9.60;;;;;;;1.09;85.75;101045.78;1717916;81;21182;-66
2021/03/02 02:29:34;;;;;;;12.23;9.45;;;;;;;1.09;85.82;101045.78;1724472;81;21068;-66
2021/03/02 02:32:04;;;;;;;10.68;9.50;;;;;;;1.15;85.87;101042.81;1727465;81;21042;-66
2021/03/02 02:34:34;;;;;;;11.90;10.58;;;;;;;1.13;85.84;101039.38;1714675;82;21096;-66
2021/03/02 02:37:03;;;;;;;10.78;8.10;;;;;;;1.16;85.95;101038.13;1722908;81;21081;-66
2021/03/02 02:39:33;;;;;;;10.80;8.68;;;;;;;1.20;85.92;101046.31;1712917;82;21416;-67
2021/03/02 02:42:02;;;;;;;13.95;9.98;;;;;;;1.20;85.83;101044.59;1725530;81;21582;-67
2021/03/02 02:44:30;;;;;;;12.20;9.63;;;;;;;1.15;85.74;101037.67;1726331;81;21071;-67
2021/03/02 02:46:59;;;;;;;12.40;9.70;;;;;;;1.14;85.86;101038.53;1726408;81;21255;-66
2021/03/02 02:49:28;;;;;;;10.43;9.18;;;;;;;1.15;85.87;101040.24;1730254;81;21631;-66
2021/03/02 02:51:56;;;;;;;11.57;9.08;;;;;;;1.17;85.94;101037.27;1717596;81;21205;-66
2021/03/02 02:54:24;;;;;;;;;;;;;;;1.18;85.89;101032.59;1721160;82;20989;-66
2021/03/02 02:56:53;;;;;;;13.93;10.13;;;;;;;1.18;85.95;101033.45;1728276;81;20175;-67
2021/03/02 02:59:25;;;;;;;13.10;10.13;;;;;;;1.18;85.91;101030.88;1724827;81;21076;-67
2021/03/02 03:02:02;;;;;;;11.95;9.40;;;;;;;1.19;85.90;101033.87;1720619;81;21073;-67
2021/03/02 03:04:33;;;;;;;13.10;9.83;;;;;;;1.17;85.83;101023.13;1729143;81;22711;-67
2021/03/02 03:07:04;;;;;;;11.68;9.33;;;;;;;1.09;85.78;101023.91;1723971;81;21036;-66
2021/03/02 03:09:32;;;;;;;13.18;9.33;;;;;;;1.08;85.93;101024.73;1719948;81;21097;-66
2021/03/02 03:12:05;;;;;;;9.40;7.92;;;;;;;1.09;85.90;101020.45;1727350;81;21145;-66
2021/03/02 03:14:35;;;;;;;11.40;8.83;;;;;;;1.10;85.98;101015.34;1720485;81;21647;-66
2021/03/02 03:17:06;;;;;;;9.48;8.13;;;;;;;1.13;85.97;101013.66;1723875;81;21226;-66
2021/03/02 03:19:35;;;;;;;10.95;8.00;;;;;;;1.16;86.00;101016.27;1730053;81;21241;-66
2021/03/02 03:22:03;;;;;;;8.38;6.65;;;;;;;1.15;85.97;101010.66;1725328;81;21597;-66
2021/03/02 03:24:31;;;;;;;8.50;7.25;;;;;;;1.16;86.00;101013.69;1722221;81;21140;-67
2021/03/02 03:26:57;;;;;;;;;;;;;;;1.14;85.97;101005.08;1729353;81;21006;-66
2021/03/02 03:29:26;;;;;;;9.98;7.95;;;;;;;1.12;85.95;101007.63;1728699;81;21226;-67
2021/03/02 03:31:56;;;;;;;9.58;7.35;;;;;;;1.11;86.01;101022.20;1724555;81;21138;-66
2021/03/02 03:34:23;;;;;;;9.70;7.85;;;;;;;1.10;85.98;101028.20;1727276;81;21154;-66
2021/03/02 03:36:51;;;;;;;12.80;8.70;;;;;;;1.06;85.96;101028.13;1727084;81;21049;-66
2021/03/02 03:39:18;;;;;;;9.25;7.72;;;;;;;1.07;86.06;101017.88;1724592;81;21064;-66
2021/03/02 03:41:45;;;;;;;8.30;7.42;;;;;;;1.09;86.08;101018.77;1723689;81;22782;-66
2021/03/02 03:44:12;;;;;;;11.25;7.87;;;;;;;1.11;86.09;101014.48;1720242;81;21128;-66
2021/03/02 03:46:39;;;;;;;10.50;7.97;;;;;;;1.14;86.12;101023.09;1736904;80;21645;-67
2021/03/02 03:49:06;;;;;;;9.98;8.28;;;;;;;1.15;86.11;101011.94;1741509;80;21045;-67
2021/03/02 03:51:36;;;;;;;9.38;7.95;;;;;;;1.13;86.08;101013.66;1714605;82;21073;-66
2021/03/02 03:54:06;;;;;;;8.98;7.05;;;;;;;1.15;86.14;101011.94;1745089;81;21210;-66
2021/03/02 03:56:54;;;;;;;8.98;7.03;;;;;;;1.15;86.12;101014.52;1711366;81;21567;-66
2021/03/02 03:59:25;;;;;;;8.90;7.78;;;;;;;1.13;86.12;100998.22;1666437;84;21436;-67
2021/03/02 04:01:54;;;;;;;9.68;7.90;;;;;;;1.14;86.13;101003.80;1667629;84;21267;-67
2021/03/02 04:04:23;;;;;;;9.18;7.05;;;;;;;1.13;86.09;100993.08;1667382;84;21119;-66
2021/03/02 04:06:51;;;;;;;10.20;8.23;;;;;;;1.11;86.10;100999.05;1665032;83;22037;-67
2021/03/02 04:09:19;;;;;;;13.72;9.95;;;;;;;1.09;86.17;100996.91;1663994;84;21045;-66
2021/03/02 04:11:46;;;;;;;12.85;10.30;;;;;;;1.13;86.16;101008.52;1661614;85;21081;-67
2021/03/02 04:14:13;;;;;;;16.97;10.58;;;;;;;1.10;86.17;101005.05;1658678;85;21292;-66
2021/03/02 04:16:42;;;;;;;13.78;10.85;;;;;;;1.08;86.13;101011.88;1661323;84;21618;-66
2021/03/02 04:19:10;;;;;;;11.48;9.75;;;;;;;1.06;86.15;101008.41;1658844;84;21287;-67
2021/03/02 04:21:37;;;;;;;11.90;9.00;;;;;;;1.05;86.22;101007.98;1663169;85;21250;-66
2021/03/02 04:24:05;;;;;;;9.73;8.15;;;;;;;1.05;86.25;101004.13;1669470;84;21072;-66
2021/03/02 04:26:32;;;;;;;9.30;8.18;;;;;;;1.05;86.18;101001.55;1638718;86;21025;-67
2021/03/02 04:28:59;;;;;;;9.13;7.78;;;;;;;1.07;86.25;101003.73;1655413;85;21056;-66
2021/03/02 04:31:26;;;;;;;8.95;7.92;;;;;;;1.09;86.28;101002.45;1667842;84;22582;-67
2021/03/02 04:33:53;;;;;;;8.80;7.75;;;;;;;1.13;86.31;100995.66;1665046;84;21089;-66
2021/03/02 04:36:20;;;;;;;6.65;5.90;;;;;;;1.10;86.22;101006.34;1660430;84;21295;-67
2021/03/02 04:38:47;;;;;;;8.23;6.92;;;;;;;1.12;86.21;101002.48;1659277;85;21645;-66
2021/03/02 04:41:14;;;;;;;8.00;6.50;;;;;;;1.08;86.43;100981.01;1666371;83;21081;-67
2021/03/02 04:43:41;;;;;;;8.33;7.35;;;;;;;1.08;86.43;100981.01;1658650;85;25392;-67
2021/03/02 04:46:08;;;;;;;10.10;7.05;;;;;;;1.08;86.27;100988.73;1669152;84;21072;-67
2021/03/02 04:48:35;;;;;;;7.92;7.03;;;;;;;1.10;86.25;100977.19;1663702;84;21064;-67
2021/03/02 04:51:03;;;;;;;10.65;7.03;;;;;;;1.13;86.28;100987.93;1667425;84;21418;-67
2021/03/02 04:53:30;;;;;;;;;;;;;;;1.14;86.28;100989.65;1671293;83;21625;-67
2021/03/02 04:55:56;;;;;;;8.18;7.37;;;;;;;1.11;86.27;100982.75;1657767;84;21690;-66
2021/03/02 04:58:23;;;;;;;9.85;7.47;;;;;;;1.09;86.29;100980.19;1665307;84;21096;-66
2021/03/02 05:00:50;;;;;;;6.83;4.90;;;;;;;1.10;86.31;100984.47;1641531;85;21150;-67
2021/03/02 05:03:17;;;;;;;6.75;6.03;;;;;;;1.08;86.30;100981.01;1653497;85;21107;-66
2021/03/02 05:05:45;;;;;;;6.67;5.97;;;;;;;1.00;86.17;100981.34;1671410;84;21565;-66
2021/03/02 05:08:12;;;;;;;7.85;7.05;;;;;;;0.94;86.12;100992.84;1672748;84;21216;-67
2021/03/02 05:10:39;;;;;;;8.05;6.45;;;;;;;0.91;86.30;100997.09;1672295;84;21209;-66
2021/03/02 05:13:06;;;;;;;7.45;6.25;;;;;;;0.92;86.36;100991.09;1637949;86;21247;-66
2021/03/02 05:15:33;;;;;;;9.45;7.67;;;;;;;0.92;86.32;100989.37;1643622;84;21251;-66
2021/03/02 05:18:00;;;;;;;10.85;7.60;;;;;;;0.91;86.27;100991.52;1677621;84;21184;-67
2021/03/02 05:20:27;;;;;;;12.70;10.00;;;;;;;0.88;86.26;100997.92;1669058;84;21428;-66
2021/03/02 05:22:54;;;;;;;11.48;8.55;;;;;;;0.82;86.23;101002.98;1670277;84;21120;-67
2021/03/02 05:25:21;;;;;;;9.25;7.47;;;;;;;0.83;86.35;101007.27;1673194;84;21145;-67
2021/03/02 05:27:48;;;;;;;8.00;7.20;;;;;;;0.83;86.33;101003.42;1658738;85;21774;-66
2021/03/02 05:30:17;;;;;;;7.58;6.12;;;;;;;0.84;86.34;100998.70;1658517;85;21093;-66
2021/03/02 05:32:44;;;;;;;6.72;5.72;;;;;;;0.84;86.36;101003.84;1668035;84;21213;-66
2021/03/02 05:35:11;;;;;;;6.90;5.70;;;;;;;0.82;86.36;101006.84;1668803;84;21072;-67
2021/03/02 05:37:38;;;;;;;7.83;5.92;;;;;;;0.81;86.32;101010.23;1653716;85;21113;-67
2021/03/02 05:40:07;;;;;;;7.28;6.58;;;;;;;0.76;86.32;101005.48;1673946;84;21263;-66
2021/03/02 05:42:35;;;;;;;6.78;5.95;;;;;;;0.76;86.36;100999.06;1669506;84;21069;-66
2021/03/02 05:47:53;;;;;;;7.87;6.80;;;;;;;0.71;86.32;101007.13;1586223;88;21203;-67
2021/03/02 05:50:21;;;;;;;7.58;6.28;;;;;;;0.71;86.47;101008.41;1553573;91;22292;-66
2021/03/02 05:52:48;;;;;;;7.42;6.53;;;;;;;0.73;86.54;101011.84;1586417;88;21195;-66
2021/03/02 05:55:16;;;;;;;8.60;6.97;;;;;;;0.74;86.43;101016.16;1585531;88;21648;-67
2021/03/02 05:57:44;;;;;;;8.13;7.08;;;;;;;0.75;86.47;101017.88;1567874;90;21907;-67
2021/03/02 06:00:32;;;;;;;7.78;7.08;;;;;;;0.73;86.54;101014.02;1572955;89;21078;-66
2021/03/02 06:03:00;;;;;;;10.45;7.65;;;;;;;0.74;86.58;101011.88;1653232;84;21459;-66
2021/03/02 06:05:27;;;;;;;8.63;7.65;;;;;;;0.73;86.48;101018.27;1669170;84;26860;-66
2021/03/02 06:07:55;;;;;;;9.63;7.30;;;;;;;0.78;86.64;101017.48;1663619;84;21191;-67
2021/03/02 06:10:31;;;;;;;7.65;6.83;;;;;;;0.79;86.56;101015.80;1665378;84;22799;-65
2021/03/02 06:13:00;;;;;;;9.35;7.62;;;;;;;0.81;86.61;101021.81;1665993;84;21569;-66
2021/03/02 06:15:29;;;;;;;9.53;7.50;;;;;;;0.76;86.50;101029.48;1653791;85;21217;-66
2021/03/02 06:18:12;;;;;;;9.23;6.90;;;;;;;0.78;86.58;101032.05;1666402;84;21084;-66
2021/03/02 06:20:44;;;;;;;7.75;5.72;;;;;;;0.79;86.53;101038.95;1669790;84;21041;-66
2021/03/02 06:23:27;;;;;;;7.53;6.40;;;;;;;0.71;86.57;101043.11;1648827;84;21239;-66
2021/03/02 06:25:57;;;;;;;8.90;7.90;;;;;;;0.59;86.60;101039.53;1656390;84;21095;-67
2021/03/02 06:28:40;;;;;;;9.50;7.22;;;;;;;0.56;86.72;101042.05;1658085;84;21080;-66
2021/03/02 06:31:10;;;;;;;7.92;6.58;;;;;;;0.56;86.70;101039.48;1652761;84;21100;-66
2021/03/02 06:33:37;;;;;;;9.23;7.40;;;;;;;0.54;87.01;101055.30;1664823;84;21109;-66
2021/03/02 06:36:10;;;;;;;10.18;8.18;;;;;;;0.49;86.81;101068.49;1659235;85;21629;-67
2021/03/02 06:38:38;;;;;;;10.08;7.95;;;;;;;0.46;86.70;101065.88;1652831;84;21589;-67
2021/03/02 06:41:06;;;;;;;9.75;8.18;;;;;;;0.47;86.69;101067.59;1656026;85;21791;-66
2021/03/02 06:43:38;;;;;;;;;;;;;;;0.47;86.88;101075.30;1657440;84;21083;-67
2021/03/02 06:46:10;;;;;;;9.10;8.20;;;;;;;0.51;86.93;101079.67;1651464;85;20202;-66
2021/03/02 06:48:56;;;;;;;10.32;7.12;;;;;;;0.55;86.89;101084.00;1654378;85;21671;-66
2021/03/02 06:51:32;;;;;;;7.70;6.33;;;;;;;0.51;86.90;101087.38;1660400;84;21097;-66
2021/03/02 06:54:15;;;;;;;8.20;7.25;;;;;;;0.47;87.03;101094.58;1661043;84;21100;-67
2021/03/02 06:56:41;;;;;;;8.88;7.10;;;;;;;0.38;87.06;101099.58;1650076;84;21957;-67
2021/03/02 06:59:18;;;;;;;;;;;;;;;0.34;87.03;101097.81;1654812;85;21212;-66
2021/03/02 07:01:49;;;;;;;10.72;6.90;;;;;;;0.34;87.02;101106.38;1613904;85;23035;-66
2021/03/02 07:07:14;;;;;;;10.48;6.78;;;;;;;0.28;87.67;101109.25;1828967;75;22839;-67
2021/03/02 07:10:35;;;;;;;8.45;6.83;;;;;;;0.28;87.47;101111.81;1791551;78;22429;-66
2021/03/02 07:13:02;;;;;;;8.05;7.08;;;;;;;0.25;87.65;101113.05;1764717;79;20999;-65
2021/03/02 07:15:35;;;;;;;6.55;5.75;;;;;;;0.23;87.54;101114.75;1769993;79;21134;-66
2021/03/02 07:18:02;;;;;;;8.63;7.45;;;;;;;0.25;87.50;101114.34;1768988;80;21121;-66
2021/03/02 07:20:29;;;;;;;9.10;7.10;;;;;;;0.27;87.59;101122.94;1765521;79;21453;-66
2021/03/02 07:22:59;;;;;;;;;;;;;;;0.26;87.99;101126.36;1771069;79;21041;-67
2021/03/02 07:25:29;;;;;;;9.55;7.00;;;;;;;0.26;87.61;101123.80;1743835;79;20173;-67
2021/03/02 07:28:01;;;;;;;6.70;5.03;;;;;;;0.29;87.81;101117.42;1739364;80;21997;-69
2021/03/02 07:30:28;;;;;;;8.03;6.67;;;;;;;0.30;88.02;101125.56;1768366;80;21072;-68
2021/03/02 07:32:56;;;;;;;7.10;6.28;;;;;;;0.27;87.94;101125.52;1764747;79;21096;-67
2021/03/02 07:35:24;;;;;;;;;;;;;;;0.33;87.88;101128.18;1772261;79;21159;-66
2021/03/02 07:37:51;;;;;;;13.25;6.70;;;;;;;0.35;87.96;101120.09;1733813;81;20175;-67
2021/03/02 07:40:20;;;;;;;7.83;6.25;;;;;;;0.38;87.66;101125.27;1709942;83;21483;-67
2021/03/02 07:42:48;;;;;;;7.00;6.20;;;;;;;0.41;88.10;101133.03;1707685;83;21057;-66
2021/03/02 07:45:19;;;;;;;8.33;7.05;;;;;;;0.40;87.64;101126.17;1730649;81;21584;-66
2021/03/02 07:47:51;;;;;;;6.87;5.65;;;;;;;0.49;87.70;101132.73;1728338;81;21066;-66
2021/03/02 07:50:29;;;;;;;8.03;6.70;;;;;;;0.59;87.70;101139.77;1713862;83;21085;-67
2021/03/02 07:53:21;;;;;;;8.18;6.85;;;;;;;0.61;87.54;101138.06;1712361;83;21270;-66
2021/03/02 07:56:08;;;;;;;7.60;6.15;;;;;;;0.64;87.54;101133.00;1740879;81;21054;-66
2021/03/02 07:58:35;;;;;;;6.92;6.05;;;;;;;0.69;87.61;101147.62;1738001;81;21079;-68
2021/03/02 08:01:23;;;;;;;6.67;5.85;;;;;;;0.72;87.73;101157.95;1710265;83;21176;-67
2021/03/02 08:03:51;;;;;;;6.65;6.00;;;;;;;0.75;87.79;101157.99;1714973;83;21677;-67
2021/03/02 08:06:33;;;;;;;7.53;5.90;;;;;;;0.80;87.63;101162.37;1685790;83;21380;-68
2021/03/02 08:09:23;;;;;;;9.43;6.67;;;;;;;0.84;87.58;101161.59;1707336;83;21100;-68
2021/03/02 08:11:52;;;;;;;10.25;5.60;;;;;;;0.92;87.67;101169.40;1712127;83;21052;-68
2021/03/02 08:14:24;;;;;;;6.30;5.50;;;;;;;0.90;87.62;101176.25;1716757;81;21121;-68
2021/03/02 08:17:01;;;;;;;6.28;5.67;;;;;;;0.85;87.65;101167.59;1715809;82;21668;-68
2021/03/02 08:19:48;;;;;;;7.20;6.50;;;;;;;0.84;87.80;101170.98;1720598;81;21462;-68
2021/03/02 08:22:30;;;;;;;9.83;6.85;;;;;;;0.87;87.84;101158.20;1714030;82;21068;-67
2021/03/02 08:25:13;;;;;;;7.12;5.75;;;;;;;0.86;88.23;101179.59;1730201;81;21072;-67
2021/03/02 08:27:48;;;;;;;7.87;6.80;;;;;;;0.86;88.23;101169.31;1718536;82;21187;-67
2021/03/02 08:30:29;;;;;;;7.67;6.55;;;;;;;0.92;88.02;101160.39;1721546;82;21598;-67
2021/03/02 08:33:21;;;;;;;8.00;6.53;;;;;;;1.00;88.01;101161.38;1718766;82;22042;-67
2021/03/02 08:35:52;;;;;;;7.45;6.03;;;;;;;1.06;87.87;101161.89;1720992;82;21104;-68
2021/03/02 08:38:41;;;;;;;6.90;6.20;;;;;;;1.15;87.93;101167.19;1722501;82;21096;-67
2021/03/02 08:41:09;;;;;;;8.95;6.28;;;;;;;1.24;87.94;101169.88;1714837;82;21198;-67
2021/03/02 08:43:36;;;;;;;8.78;5.80;;;;;;;1.28;87.76;101174.64;1715211;82;21057;-68
2021/03/02 08:46:04;;;;;;;8.40;6.10;;;;;;;1.24;87.78;101184.47;1714248;82;21648;-67
2021/03/02 08:48:34;;;;;;;9.93;6.85;;;;;;;1.18;87.78;101179.23;1713693;82;21353;-67
2021/03/02 08:51:08;;;;;;;7.35;6.15;;;;;;;1.24;87.99;101185.75;1718478;82;21084;-67
2021/03/02 08:53:40;;;;;;;6.28;5.10;;;;;;;1.39;88.03;101187.23;1718076;82;21270;-67
2021/03/02 08:56:22;;;;;;;6.75;5.10;;;;;;;1.37;87.96;101185.05;1713480;82;21183;-67
2021/03/02 08:58:57;;;;;;;6.03;5.42;;;;;;;1.26;87.83;101185.33;1713473;82;21775;-67
2021/03/02 09:01:30;;;;;;;6.20;5.25;;;;;;;1.18;87.90;101184.38;1711237;82;21088;-67
2021/03/02 09:04:16;;;;;;;6.00;5.00;;;;;;;1.13;87.92;101183.45;1714188;82;21069;-66
2021/03/02 09:06:46;;;;;;;7.83;6.30;;;;;;;1.21;88.22;101184.42;1716728;81;21147;-67
2021/03/02 09:09:19;;;;;;;7.40;6.08;;;;;;;1.22;87.89;101186.14;1711129;82;21626;-67
2021/03/02 09:11:56;;;;;;;6.17;5.50;;;;;;;1.22;87.84;101191.28;1713996;82;21216;-67
2021/03/02 09:14:29;;;;;;;7.53;6.43;;;;;;;1.20;88.11;101195.53;1717943;82;21035;-67
2021/03/02 09:17:00;;;;;;;7.33;6.12;;;;;;;1.23;88.16;101198.16;1713473;82;21773;-67
2021/03/02 09:19:40;;;;;;;8.15;7.03;;;;;;;1.23;87.99;101195.19;1715205;82;21685;-67
2021/03/02 09:22:14;;;;;;;9.10;7.35;;;;;;;1.22;88.04;101206.73;1712683;82;21069;-67
2021/03/02 09:24:57;;;;;;;9.33;7.17;;;;;;;1.22;88.01;101199.00;1712098;82;21791;-66
2021/03/02 09:27:36;;;;;;;9.20;7.47;;;;;;;1.18;88.06;101202.39;1707615;82;21064;-67
2021/03/02 09:30:06;;;;;;;9.55;8.23;;;;;;;1.25;88.19;101201.62;1711974;82;21080;-66
2021/03/02 09:32:34;;;;;;;9.75;7.90;;;;;;;1.28;88.06;101214.53;1709921;82;21623;-66
2021/03/02 09:35:07;;;;;;;11.38;7.35;;;;;;;1.28;88.04;101210.67;1713162;82;21044;-66
2021/03/02 09:37:39;;;;;;;10.95;8.20;;;;;;;1.32;88.21;101208.60;1715364;82;21219;-67
2021/03/02 09:43:04;;;;;;;11.97;9.48;;;;;;;1.32;87.98;101222.33;1718941;82;21077;-68
2021/03/02 09:45:33;;;;;;;10.72;8.95;;;;;;;1.27;87.99;101212.81;1668911;84;21041;-66
2021/03/02 09:48:07;;;;;;;12.07;9.68;;;;;;;1.25;87.99;101223.06;1697093;82;21083;-67
2021/03/02 09:50:39;;;;;;;11.90;9.20;;;;;;;1.25;88.09;101220.92;1697010;82;21691;-66
2021/03/02 09:53:17;;;;;;;10.72;8.55;;;;;;;1.26;88.20;101230.36;1696829;82;21083;-67
2021/03/02 09:55:47;;;;;;;14.18;9.73;;;;;;;1.23;88.39;101222.20;1715277;82;21684;-67
2021/03/02 09:58:20;;;;;;;14.25;10.90;;;;;;;1.27;88.25;101223.10;1716532;82;21022;-67
2021/03/02 10:00:58;;;;;;;13.75;10.38;;;;;;;1.37;88.26;101227.52;1714646;82;21146;-68
2021/03/02 10:03:26;;;;;;;16.62;10.50;;;;;;;1.45;88.15;101228.50;1711785;82;21237;-68
2021/03/02 10:06:00;;;;;;;13.18;10.60;;;;;;;1.45;88.00;101237.50;1691852;83;21040;-67
2021/03/02 10:08:32;;;;;;;12.53;10.20;;;;;;;1.49;88.03;101232.86;1693087;83;20961;-67
2021/03/02 10:11:14;;;;;;;12.15;10.18;;;;;;;1.43;87.86;101232.78;1690373;84;21060;-67
2021/03/02 10:13:55;;;;;;;10.82;9.65;;;;;;;1.56;88.21;101239.80;1688886;83;21246;-67
2021/03/02 10:16:42;;;;;;;12.75;10.35;;;;;;;1.67;88.13;101241.67;1694096;83;21213;-66
2021/03/02 10:21:58;;;;;;;11.80;10.55;;;;;;;1.86;88.06;101252.66;1832009;77;22698;-66
2021/03/02 10:24:29;;;;;;;13.43;10.85;;;;;;;1.77;87.55;101257.70;1805465;78;21859;-65
2021/03/02 10:27:02;;;;;;;12.82;10.13;;;;;;;1.72;87.64;101263.20;1807288;78;22396;-65
2021/03/02 10:29:29;;;;;;;11.88;9.40;;;;;;;1.67;87.63;101266.99;1805972;78;21664;-66
2021/03/02 10:31:56;;;;;;;13.48;11.30;;;;;;;1.61;87.69;101276.36;1808350;78;24378;-67
2021/03/02 10:34:23;;;;;;;11.38;10.18;;;;;;;1.60;87.70;101279.75;1806209;78;20998;-68
2021/03/02 10:36:54;;;;;;;15.13;10.72;;;;;;;1.58;87.74;101278.45;1804468;78;21044;-67
2021/03/02 10:39:23;;;;;;;15.13;11.10;;;;;;;1.59;87.92;101284.47;1806455;77;21241;-68
2021/03/02 10:41:50;;;;;;;16.50;11.57;;;;;;;1.65;87.94;101279.40;1807034;78;21047;-67
2021/03/02 10:44:17;;;;;;;14.13;11.05;;;;;;;1.63;87.79;101282.40;1802564;77;20977;-68
2021/03/02 10:46:45;;;;;;;12.40;10.68;;;;;;;1.75;88.03;101282.56;1806872;78;28283;-68
2021/03/02 10:49:14;;;;;;;13.93;10.72;;;;;;;1.76;87.74;101286.85;1806402;78;21139;-67
2021/03/02 10:51:42;;;;;;;16.73;12.05;;;;;;;1.83;87.89;101289.97;1810049;78;22185;-68
2021/03/02 10:54:10;;;;;;;;;;;;;;;1.86;87.78;101281.42;1808972;78;22241;-68
2021/03/02 10:56:43;;;;;;;15.50;12.13;;;;;;;1.92;87.84;101279.78;1806499;78;20765;-68
2021/03/02 10:59:19;;;;;;;15.28;11.30;;;;;;;2.01;87.89;101269.58;1812613;78;21061;-68
2021/03/02 11:01:47;;;;;;;16.27;11.75;;;;;;;2.10;87.62;101277.87;1805986;77;21005;-67
2021/03/02 11:04:14;;;;;;;;;;;;;;;1.94;87.20;101278.09;1808121;78;21196;-68
2021/03/02 11:06:41;;;;;;;15.43;10.78;;;;;;;1.94;87.55;101271.66;1811689;78;20156;-70
2021/03/02 11:09:08;;;;;;;15.50;11.75;;;;;;;1.99;87.59;101275.16;1805103;78;21040;-69
2021/03/02 11:11:36;;;;;;;19.02;10.78;;;;;;;1.88;87.19;101279.31;1802560;78;21068;-71
2021/03/02 11:14:03;;;;;;;18.07;11.93;;;;;;;1.83;87.31;101273.66;1804240;77;21151;-70
2021/03/02 11:16:30;;;;;;;13.75;10.95;;;;;;;1.88;87.61;101272.88;1802507;78;21204;-71
2021/03/02 11:18:58;;;;;;;14.25;11.08;;;;;;;2.00;87.86;101266.58;1806356;78;21044;-72
2021/03/02 11:21:25;;;;;;;13.48;11.70;;;;;;;2.17;87.86;101263.34;1805128;78;21040;-70
2021/03/02 11:23:53;;;;;;;14.60;11.93;;;;;;;2.33;87.85;101273.41;1784042;78;20980;-71
2021/03/02 11:26:20;;;;;;;15.13;11.57;;;;;;;2.40;87.56;101265.73;1786752;78;26601;-72
2021/03/02 11:28:47;;;;;;;13.68;11.73;;;;;;;2.33;86.83;101257.95;1784663;78;21209;-71
2021/03/02 11:31:14;;;;;;;14.25;11.43;;;;;;;2.15;86.75;101265.03;1781400;78;21016;-70
2021/03/02 11:33:43;;;;;;;14.33;11.15;;;;;;;2.07;87.08;101264.06;1783284;78;21067;-67
2021/03/02 11:36:10;;;;;;;13.53;10.70;;;;;;;2.11;87.28;101260.70;1781192;78;21083;-68
2021/03/02 11:38:37;;;;;;;17.45;11.60;;;;;;;2.08;87.00;101258.95;1786261;78;22133;-69
2021/03/02 11:41:04;;;;;;;13.83;11.30;;;;;;;2.03;87.01;101261.03;1780440;78;21196;-68
2021/03/02 11:43:31;;;;;;;15.98;12.53;;;;;;;2.10;87.61;101255.08;1784029;78;21048;-66
2021/03/02 11:45:59;;;;;;;15.18;11.70;;;;;;;2.20;87.51;101256.93;1783843;78;21048;-66
2021/03/02 11:48:26;;;;;;;14.30;11.53;;;;;;;2.32;87.59;101254.48;1779309;78;21761;-66
2021/03/02 11:50:53;;;;;;;14.55;11.40;;;;;;;2.40;87.50;101247.70;1784297;78;21033;-67
2021/03/02 11:53:30;;;;;;;14.35;11.93;;;;;;;2.48;87.38;101249.50;1757078;80;21209;-67
2021/03/02 11:56:04;;;;;;;15.72;10.80;;;;;;;2.59;87.58;101244.89;1785100;78;21211;-67
2021/03/02 11:58:41;;;;;;;12.65;10.98;;;;;;;2.66;87.32;101249.66;1780490;78;21203;-67
2021/03/02 12:01:08;;;;;;;18.82;11.90;;;;;;;2.73;87.34;101246.31;1786030;78;21796;-67